sensor_id;sensor_type;location;lat;lon;timestamp;P1;durP1;ratioP1;P2;durP2;ratioP2
60088;SDS011;45961;53.574;55.878;2022-08-16T00:00:24;5.72;;;4.03;;
60088;SDS011;45961;53.574;55.878;2022-08-16T00:01:27;5.22;;;4.22;;
60088;SDS011;45961;53.574;55.878;2022-08-16T00:02:28;7.55;;;4.20;;
60088;SDS011;45961;53.574;55.878;2022-08-16T00:03:29;5.00;;;4.50;;
60088;SDS011;45961;53.574;55.878;2022-08-16T00:04:30;5.60;;;4.65;;
60088;SDS011;45961;53.574;55.878;2022-08-16T00:05:31;4.95;;;4.43;;
60088;SDS011;45961;53.574;55.878;2022-08-16T00:06:33;5.65;;;3.90;;
60088;SDS011;45961;53.574;55.878;2022-08-16T00:07:34;6.25;;;4.82;;
60088;SDS011;45961;53.574;55.878;2022-08-16T00:08:35;4.65;;;4.25;;
60088;SDS011;45961;53.574;55.878;2022-08-16T00:09:37;6.55;;;4.47;;
60088;SDS011;45961;53.574;55.878;2022-08-16T00:10:38;5.40;;;4.25;;
60088;SDS011;45961;53.574;55.878;2022-08-16T00:11:40;5.70;;;4.40;;
60088;SDS011;45961;53.574;55.878;2022-08-16T00:12:42;5.78;;;4.50;;
60088;SDS011;45961;53.574;55.878;2022-08-16T00:13:44;6.10;;;4.55;;
60088;SDS011;45961;53.574;55.878;2022-08-16T00:15:47;6.18;;;4.40;;
60088;SDS011;45961;53.574;55.878;2022-08-16T00:16:49;7.32;;;4.32;;
60088;SDS011;45961;53.574;55.878;2022-08-16T00:17:50;4.97;;;4.47;;
60088;SDS011;45961;53.574;55.878;2022-08-16T00:18:51;5.30;;;4.35;;
60088;SDS011;45961;53.574;55.878;2022-08-16T00:19:53;5.03;;;4.50;;
60088;SDS011;45961;53.574;55.878;2022-08-16T00:21:55;5.95;;;4.15;;
60088;SDS011;45961;53.574;55.878;2022-08-16T00:22:57;6.50;;;4.03;;
60088;SDS011;45961;53.574;55.878;2022-08-16T00:23:58;5.25;;;4.38;;
60088;SDS011;45961;53.574;55.878;2022-08-16T00:25:00;5.75;;;4.82;;
60088;SDS011;45961;53.574;55.878;2022-08-16T00:27:02;4.97;;;4.47;;
60088;SDS011;45961;53.574;55.878;2022-08-16T00:28:04;7.13;;;5.38;;
60088;SDS011;45961;53.574;55.878;2022-08-16T00:29:06;8.32;;;5.43;;
60088;SDS011;45961;53.574;55.878;2022-08-16T00:30:08;4.97;;;4.55;;
60088;SDS011;45961;53.574;55.878;2022-08-16T00:31:12;6.88;;;4.45;;
60088;SDS011;45961;53.574;55.878;2022-08-16T00:32:13;6.72;;;4.68;;
60088;SDS011;45961;53.574;55.878;2022-08-16T00:34:15;5.00;;;4.13;;
60088;SDS011;45961;53.574;55.878;2022-08-16T00:35:19;7.05;;;4.22;;
60088;SDS011;45961;53.574;55.878;2022-08-16T00:36:22;6.18;;;4.25;;
60088;SDS011;45961;53.574;55.878;2022-08-16T00:37:24;8.55;;;4.38;;
60088;SDS011;45961;53.574;55.878;2022-08-16T00:38:25;5.75;;;4.80;;
60088;SDS011;45961;53.574;55.878;2022-08-16T00:39:26;5.45;;;4.53;;
60088;SDS011;45961;53.574;55.878;2022-08-16T00:41:38;9.00;;;4.32;;
60088;SDS011;45961;53.574;55.878;2022-08-16T00:42:41;6.53;;;4.78;;
60088;SDS011;45961;53.574;55.878;2022-08-16T00:43:42;7.40;;;4.72;;
60088;SDS011;45961;53.574;55.878;2022-08-16T00:44:45;10.10;;;4.63;;
60088;SDS011;45961;53.574;55.878;2022-08-16T00:45:53;10.48;;;4.38;;
60088;SDS011;45961;53.574;55.878;2022-08-16T00:47:02;8.20;;;4.60;;
60088;SDS011;45961;53.574;55.878;2022-08-16T00:48:10;7.18;;;4.82;;
60088;SDS011;45961;53.574;55.878;2022-08-16T00:49:13;5.80;;;4.32;;
60088;SDS011;45961;53.574;55.878;2022-08-16T00:50:20;6.72;;;4.30;;
60088;SDS011;45961;53.574;55.878;2022-08-16T00:51:23;5.05;;;4.20;;
60088;SDS011;45961;53.574;55.878;2022-08-16T00:52:26;7.88;;;4.28;;
60088;SDS011;45961;53.574;55.878;2022-08-16T00:53:27;4.55;;;3.83;;
60088;SDS011;45961;53.574;55.878;2022-08-16T00:54:29;5.88;;;4.25;;
60088;SDS011;45961;53.574;55.878;2022-08-16T00:55:31;6.22;;;4.50;;
60088;SDS011;45961;53.574;55.878;2022-08-16T00:56:34;6.97;;;4.28;;
60088;SDS011;45961;53.574;55.878;2022-08-16T00:57:38;4.72;;;4.13;;
60088;SDS011;45961;53.574;55.878;2022-08-16T00:58:40;5.55;;;4.30;;
60088;SDS011;45961;53.574;55.878;2022-08-16T00:59:44;5.53;;;3.97;;
60088;SDS011;45961;53.574;55.878;2022-08-16T01:00:45;6.10;;;4.15;;
60088;SDS011;45961;53.574;55.878;2022-08-16T01:01:47;5.63;;;3.83;;
60088;SDS011;45961;53.574;55.878;2022-08-16T01:02:48;5.90;;;3.90;;
60088;SDS011;45961;53.574;55.878;2022-08-16T01:03:50;6.40;;;3.80;;
60088;SDS011;45961;53.574;55.878;2022-08-16T01:04:53;8.95;;;3.97;;
60088;SDS011;45961;53.574;55.878;2022-08-16T01:05:54;7.38;;;4.00;;
60088;SDS011;45961;53.574;55.878;2022-08-16T01:06:58;6.47;;;3.58;;
60088;SDS011;45961;53.574;55.878;2022-08-16T01:08:00;6.43;;;4.13;;
60088;SDS011;45961;53.574;55.878;2022-08-16T01:09:03;6.55;;;3.92;;
60088;SDS011;45961;53.574;55.878;2022-08-16T01:10:06;5.03;;;4.13;;
60088;SDS011;45961;53.574;55.878;2022-08-16T01:11:07;7.35;;;3.90;;
60088;SDS011;45961;53.574;55.878;2022-08-16T01:12:08;4.80;;;3.80;;
60088;SDS011;45961;53.574;55.878;2022-08-16T01:13:11;6.13;;;3.83;;
60088;SDS011;45961;53.574;55.878;2022-08-16T01:14:20;4.53;;;3.30;;
60088;SDS011;45961;53.574;55.878;2022-08-16T01:15:24;4.78;;;3.85;;
60088;SDS011;45961;53.574;55.878;2022-08-16T01:16:27;5.18;;;3.25;;
60088;SDS011;45961;53.574;55.878;2022-08-16T01:17:29;4.53;;;3.20;;
60088;SDS011;45961;53.574;55.878;2022-08-16T01:18:38;4.55;;;3.30;;
60088;SDS011;45961;53.574;55.878;2022-08-16T01:19:45;3.55;;;2.90;;
60088;SDS011;45961;53.574;55.878;2022-08-16T01:21:01;4.22;;;3.50;;
60088;SDS011;45961;53.574;55.878;2022-08-16T01:25:14;4.68;;;3.50;;
60088;SDS011;45961;53.574;55.878;2022-08-16T01:26:20;5.43;;;3.47;;
60088;SDS011;45961;53.574;55.878;2022-08-16T01:27:26;4.30;;;3.80;;
60088;SDS011;45961;53.574;55.878;2022-08-16T01:28:31;4.97;;;3.67;;
60088;SDS011;45961;53.574;55.878;2022-08-16T01:29:35;4.00;;;3.60;;
60088;SDS011;45961;53.574;55.878;2022-08-16T01:30:40;4.60;;;3.38;;
60088;SDS011;45961;53.574;55.878;2022-08-16T01:31:44;5.45;;;3.20;;
60088;SDS011;45961;53.574;55.878;2022-08-16T01:32:45;4.97;;;3.95;;
60088;SDS011;45961;53.574;55.878;2022-08-16T01:33:47;7.28;;;3.58;;
60088;SDS011;45961;53.574;55.878;2022-08-16T01:34:49;7.07;;;3.30;;
60088;SDS011;45961;53.574;55.878;2022-08-16T01:36:58;4.30;;;3.10;;
60088;SDS011;45961;53.574;55.878;2022-08-16T01:38:16;5.35;;;3.72;;
60088;SDS011;45961;53.574;55.878;2022-08-16T01:39:20;4.10;;;3.13;;
60088;SDS011;45961;53.574;55.878;2022-08-16T01:40:27;4.57;;;3.10;;
60088;SDS011;45961;53.574;55.878;2022-08-16T01:41:30;4.65;;;4.00;;
60088;SDS011;45961;53.574;55.878;2022-08-16T01:42:34;9.20;;;3.90;;
60088;SDS011;45961;53.574;55.878;2022-08-16T01:44:37;3.92;;;3.17;;
60088;SDS011;45961;53.574;55.878;2022-08-16T01:45:39;4.75;;;3.50;;
60088;SDS011;45961;53.574;55.878;2022-08-16T01:48:02;5.15;;;3.65;;
60088;SDS011;45961;53.574;55.878;2022-08-16T01:49:08;3.30;;;3.00;;
60088;SDS011;45961;53.574;55.878;2022-08-16T01:50:25;5.82;;;3.72;;
60088;SDS011;45961;53.574;55.878;2022-08-16T01:51:26;6.57;;;3.90;;
60088;SDS011;45961;53.574;55.878;2022-08-16T01:52:30;8.48;;;3.88;;
60088;SDS011;45961;53.574;55.878;2022-08-16T01:53:36;6.35;;;3.75;;
60088;SDS011;45961;53.574;55.878;2022-08-16T01:54:42;8.70;;;3.65;;
60088;SDS011;45961;53.574;55.878;2022-08-16T02:35:51;4.63;;;3.83;;
60088;SDS011;45961;53.574;55.878;2022-08-16T02:36:53;5.95;;;3.95;;
60088;SDS011;45961;53.574;55.878;2022-08-16T02:37:55;8.82;;;3.53;;
60088;SDS011;45961;53.574;55.878;2022-08-16T02:38:58;8.10;;;3.75;;
60088;SDS011;45961;53.574;55.878;2022-08-16T02:41:01;7.03;;;4.13;;
60088;SDS011;45961;53.574;55.878;2022-08-16T02:42:02;8.07;;;3.92;;
60088;SDS011;45961;53.574;55.878;2022-08-16T02:44:05;4.95;;;3.75;;
60088;SDS011;45961;53.574;55.878;2022-08-16T02:45:06;9.95;;;4.55;;
60088;SDS011;45961;53.574;55.878;2022-08-16T02:46:08;6.22;;;4.13;;
60088;SDS011;45961;53.574;55.878;2022-08-16T02:47:10;7.60;;;4.15;;
60088;SDS011;45961;53.574;55.878;2022-08-16T02:48:11;6.75;;;4.20;;
60088;SDS011;45961;53.574;55.878;2022-08-16T02:49:12;5.40;;;4.18;;
60088;SDS011;45961;53.574;55.878;2022-08-16T02:50:14;6.22;;;4.72;;
60088;SDS011;45961;53.574;55.878;2022-08-16T02:51:15;36.72;;;6.18;;
60088;SDS011;45961;53.574;55.878;2022-08-16T02:52:18;15.32;;;5.22;;
60088;SDS011;45961;53.574;55.878;2022-08-16T02:53:20;9.32;;;4.85;;
60088;SDS011;45961;53.574;55.878;2022-08-16T02:54:21;9.18;;;5.28;;
60088;SDS011;45961;53.574;55.878;2022-08-16T02:55:23;6.65;;;4.78;;
60088;SDS011;45961;53.574;55.878;2022-08-16T02:56:24;7.78;;;4.97;;
60088;SDS011;45961;53.574;55.878;2022-08-16T02:57:26;7.22;;;4.68;;
60088;SDS011;45961;53.574;55.878;2022-08-16T02:59:28;7.10;;;5.03;;
60088;SDS011;45961;53.574;55.878;2022-08-16T03:00:30;7.40;;;4.90;;
60088;SDS011;45961;53.574;55.878;2022-08-16T03:01:32;9.63;;;4.72;;
60088;SDS011;45961;53.574;55.878;2022-08-16T03:02:36;6.40;;;5.05;;
60088;SDS011;45961;53.574;55.878;2022-08-16T03:03:42;8.15;;;5.57;;
60088;SDS011;45961;53.574;55.878;2022-08-16T03:04:43;8.82;;;5.13;;
60088;SDS011;45961;53.574;55.878;2022-08-16T03:05:44;14.00;;;5.45;;
60088;SDS011;45961;53.574;55.878;2022-08-16T03:06:51;13.23;;;6.38;;
60088;SDS011;45961;53.574;55.878;2022-08-16T03:08:08;12.27;;;6.18;;
60088;SDS011;45961;53.574;55.878;2022-08-16T03:09:14;8.43;;;5.50;;
60088;SDS011;45961;53.574;55.878;2022-08-16T03:10:20;8.48;;;6.13;;
60088;SDS011;45961;53.574;55.878;2022-08-16T03:11:22;8.02;;;6.47;;
60088;SDS011;45961;53.574;55.878;2022-08-16T03:12:23;12.07;;;6.28;;
60088;SDS011;45961;53.574;55.878;2022-08-16T03:13:25;12.50;;;7.55;;
60088;SDS011;45961;53.574;55.878;2022-08-16T03:14:27;16.85;;;6.57;;
60088;SDS011;45961;53.574;55.878;2022-08-16T03:15:31;20.20;;;6.00;;
60088;SDS011;45961;53.574;55.878;2022-08-16T03:16:33;11.98;;;6.40;;
60088;SDS011;45961;53.574;55.878;2022-08-16T03:17:35;9.23;;;6.07;;
60088;SDS011;45961;53.574;55.878;2022-08-16T03:18:37;16.88;;;7.60;;
60088;SDS011;45961;53.574;55.878;2022-08-16T03:19:39;9.77;;;5.82;;
60088;SDS011;45961;53.574;55.878;2022-08-16T03:21:42;14.32;;;8.07;;
60088;SDS011;45961;53.574;55.878;2022-08-16T03:22:43;14.68;;;6.28;;
60088;SDS011;45961;53.574;55.878;2022-08-16T03:23:47;9.45;;;5.78;;
60088;SDS011;45961;53.574;55.878;2022-08-16T03:24:48;9.68;;;6.15;;
60088;SDS011;45961;53.574;55.878;2022-08-16T03:25:50;9.85;;;6.05;;
60088;SDS011;45961;53.574;55.878;2022-08-16T03:26:52;10.93;;;6.90;;
60088;SDS011;45961;53.574;55.878;2022-08-16T03:27:54;10.45;;;6.53;;
60088;SDS011;45961;53.574;55.878;2022-08-16T03:28:56;11.82;;;6.60;;
60088;SDS011;45961;53.574;55.878;2022-08-16T03:30:03;12.65;;;6.93;;
60088;SDS011;45961;53.574;55.878;2022-08-16T03:31:07;13.02;;;6.47;;
60088;SDS011;45961;53.574;55.878;2022-08-16T03:32:09;23.02;;;6.80;;
60088;SDS011;45961;53.574;55.878;2022-08-16T03:33:10;15.98;;;7.60;;
60088;SDS011;45961;53.574;55.878;2022-08-16T03:34:19;16.10;;;7.68;;
60088;SDS011;45961;53.574;55.878;2022-08-16T03:35:23;9.63;;;7.18;;
60088;SDS011;45961;53.574;55.878;2022-08-16T03:36:27;14.98;;;7.00;;
60088;SDS011;45961;53.574;55.878;2022-08-16T03:37:32;11.55;;;6.63;;
60088;SDS011;45961;53.574;55.878;2022-08-16T03:38:36;10.38;;;6.88;;
60088;SDS011;45961;53.574;55.878;2022-08-16T03:39:41;12.02;;;6.85;;
60088;SDS011;45961;53.574;55.878;2022-08-16T03:41:43;13.50;;;7.27;;
60088;SDS011;45961;53.574;55.878;2022-08-16T03:42:44;16.83;;;7.50;;
60088;SDS011;45961;53.574;55.878;2022-08-16T03:43:46;10.25;;;7.60;;
60088;SDS011;45961;53.574;55.878;2022-08-16T03:44:51;12.77;;;6.85;;
60088;SDS011;45961;53.574;55.878;2022-08-16T03:45:53;10.23;;;6.78;;
60088;SDS011;45961;53.574;55.878;2022-08-16T03:46:59;10.25;;;7.03;;
60088;SDS011;45961;53.574;55.878;2022-08-16T03:48:06;10.70;;;6.22;;
60088;SDS011;45961;53.574;55.878;2022-08-16T03:49:09;8.57;;;6.07;;
60088;SDS011;45961;53.574;55.878;2022-08-16T03:50:11;12.48;;;5.78;;
60088;SDS011;45961;53.574;55.878;2022-08-16T03:51:14;16.85;;;6.75;;
60088;SDS011;45961;53.574;55.878;2022-08-16T03:52:22;12.60;;;6.20;;
60088;SDS011;45961;53.574;55.878;2022-08-16T03:53:25;9.70;;;6.60;;
60088;SDS011;45961;53.574;55.878;2022-08-16T03:54:26;10.73;;;6.78;;
60088;SDS011;45961;53.574;55.878;2022-08-16T03:55:28;13.20;;;6.72;;
60088;SDS011;45961;53.574;55.878;2022-08-16T03:56:29;9.82;;;7.05;;
60088;SDS011;45961;53.574;55.878;2022-08-16T03:57:30;12.30;;;6.63;;
60088;SDS011;45961;53.574;55.878;2022-08-16T03:59:33;8.57;;;6.15;;
60088;SDS011;45961;53.574;55.878;2022-08-16T04:00:40;11.00;;;6.30;;
60088;SDS011;45961;53.574;55.878;2022-08-16T04:01:45;24.13;;;7.28;;
60088;SDS011;45961;53.574;55.878;2022-08-16T04:02:47;12.27;;;6.95;;
60088;SDS011;45961;53.574;55.878;2022-08-16T04:03:52;10.95;;;6.75;;
60088;SDS011;45961;53.574;55.878;2022-08-16T04:04:53;13.18;;;6.95;;
60088;SDS011;45961;53.574;55.878;2022-08-16T04:05:55;12.32;;;6.32;;
60088;SDS011;45961;53.574;55.878;2022-08-16T04:06:57;19.50;;;5.95;;
60088;SDS011;45961;53.574;55.878;2022-08-16T04:07:58;9.63;;;6.18;;
60088;SDS011;45961;53.574;55.878;2022-08-16T04:08:59;11.15;;;5.88;;
60088;SDS011;45961;53.574;55.878;2022-08-16T04:10:01;10.43;;;5.97;;
60088;SDS011;45961;53.574;55.878;2022-08-16T04:11:03;8.48;;;6.03;;
60088;SDS011;45961;53.574;55.878;2022-08-16T04:12:06;10.55;;;6.10;;
60088;SDS011;45961;53.574;55.878;2022-08-16T04:13:09;12.65;;;6.55;;
60088;SDS011;45961;53.574;55.878;2022-08-16T04:14:11;10.30;;;6.32;;
60088;SDS011;45961;53.574;55.878;2022-08-16T04:15:15;11.45;;;6.43;;
60088;SDS011;45961;53.574;55.878;2022-08-16T04:16:23;11.48;;;6.65;;
60088;SDS011;45961;53.574;55.878;2022-08-16T04:17:24;11.95;;;6.60;;
60088;SDS011;45961;53.574;55.878;2022-08-16T04:18:30;10.25;;;5.47;;
60088;SDS011;45961;53.574;55.878;2022-08-16T04:19:33;11.05;;;6.63;;
60088;SDS011;45961;53.574;55.878;2022-08-16T04:20:36;12.90;;;5.97;;
60088;SDS011;45961;53.574;55.878;2022-08-16T04:21:39;9.82;;;6.60;;
60088;SDS011;45961;53.574;55.878;2022-08-16T04:22:40;6.90;;;5.47;;
60088;SDS011;45961;53.574;55.878;2022-08-16T04:23:45;9.45;;;6.18;;
60088;SDS011;45961;53.574;55.878;2022-08-16T04:24:46;12.07;;;5.95;;
60088;SDS011;45961;53.574;55.878;2022-08-16T04:25:47;19.27;;;6.55;;
60088;SDS011;45961;53.574;55.878;2022-08-16T04:26:49;10.52;;;6.68;;
60088;SDS011;45961;53.574;55.878;2022-08-16T04:28:51;9.97;;;5.57;;
60088;SDS011;45961;53.574;55.878;2022-08-16T04:29:53;13.23;;;6.38;;
60088;SDS011;45961;53.574;55.878;2022-08-16T04:31:56;10.07;;;5.57;;
60088;SDS011;45961;53.574;55.878;2022-08-16T04:32:58;8.65;;;5.90;;
60088;SDS011;45961;53.574;55.878;2022-08-16T04:34:00;15.73;;;6.10;;
60088;SDS011;45961;53.574;55.878;2022-08-16T04:36:03;13.55;;;5.70;;
60088;SDS011;45961;53.574;55.878;2022-08-16T04:38:10;9.30;;;5.70;;
60088;SDS011;45961;53.574;55.878;2022-08-16T04:39:17;12.23;;;5.57;;
60088;SDS011;45961;53.574;55.878;2022-08-16T04:40:20;8.70;;;5.63;;
60088;SDS011;45961;53.574;55.878;2022-08-16T04:41:23;17.08;;;6.00;;
60088;SDS011;45961;53.574;55.878;2022-08-16T04:42:25;12.45;;;5.95;;
60088;SDS011;45961;53.574;55.878;2022-08-16T04:43:27;9.75;;;6.13;;
60088;SDS011;45961;53.574;55.878;2022-08-16T04:44:29;8.02;;;6.28;;
60088;SDS011;45961;53.574;55.878;2022-08-16T04:45:30;9.43;;;4.72;;
60088;SDS011;45961;53.574;55.878;2022-08-16T04:46:31;13.57;;;6.10;;
60088;SDS011;45961;53.574;55.878;2022-08-16T04:48:35;8.57;;;4.97;;
60088;SDS011;45961;53.574;55.878;2022-08-16T04:49:42;6.82;;;5.70;;
60088;SDS011;45961;53.574;55.878;2022-08-16T04:50:46;8.75;;;5.07;;
60088;SDS011;45961;53.574;55.878;2022-08-16T04:51:51;20.27;;;6.93;;
60088;SDS011;45961;53.574;55.878;2022-08-16T04:52:52;14.02;;;5.22;;
60088;SDS011;45961;53.574;55.878;2022-08-16T04:53:54;11.00;;;5.65;;
60088;SDS011;45961;53.574;55.878;2022-08-16T04:54:55;16.15;;;6.03;;
60088;SDS011;45961;53.574;55.878;2022-08-16T04:55:57;11.45;;;5.20;;
60088;SDS011;45961;53.574;55.878;2022-08-16T04:56:59;21.40;;;6.43;;
60088;SDS011;45961;53.574;55.878;2022-08-16T04:58:00;15.70;;;7.22;;
60088;SDS011;45961;53.574;55.878;2022-08-16T04:59:03;8.95;;;5.60;;
60088;SDS011;45961;53.574;55.878;2022-08-16T05:00:08;10.85;;;5.70;;
60088;SDS011;45961;53.574;55.878;2022-08-16T05:01:13;8.73;;;5.88;;
60088;SDS011;45961;53.574;55.878;2022-08-16T05:03:15;8.23;;;5.93;;
60088;SDS011;45961;53.574;55.878;2022-08-16T05:04:23;14.70;;;6.80;;
60088;SDS011;45961;53.574;55.878;2022-08-16T05:05:25;11.25;;;6.75;;
60088;SDS011;45961;53.574;55.878;2022-08-16T05:06:26;8.10;;;6.00;;
60088;SDS011;45961;53.574;55.878;2022-08-16T05:07:28;8.75;;;5.07;;
60088;SDS011;45961;53.574;55.878;2022-08-16T05:08:35;8.50;;;6.25;;
60088;SDS011;45961;53.574;55.878;2022-08-16T05:09:45;9.00;;;5.47;;
60088;SDS011;45961;53.574;55.878;2022-08-16T05:10:47;7.78;;;5.72;;
60088;SDS011;45961;53.574;55.878;2022-08-16T05:11:48;11.38;;;5.93;;
60088;SDS011;45961;53.574;55.878;2022-08-16T05:12:50;9.00;;;5.15;;
60088;SDS011;45961;53.574;55.878;2022-08-16T05:13:51;9.63;;;4.82;;
60088;SDS011;45961;53.574;55.878;2022-08-16T05:14:55;9.48;;;5.30;;
60088;SDS011;45961;53.574;55.878;2022-08-16T05:15:57;9.23;;;5.07;;
60088;SDS011;45961;53.574;55.878;2022-08-16T05:16:59;9.10;;;4.70;;
60088;SDS011;45961;53.574;55.878;2022-08-16T05:18:00;10.00;;;5.13;;
60088;SDS011;45961;53.574;55.878;2022-08-16T05:19:06;8.60;;;4.70;;
60088;SDS011;45961;53.574;55.878;2022-08-16T05:20:11;11.73;;;5.18;;
60088;SDS011;45961;53.574;55.878;2022-08-16T05:21:14;7.22;;;5.00;;
60088;SDS011;45961;53.574;55.878;2022-08-16T05:22:20;11.32;;;4.55;;
60088;SDS011;45961;53.574;55.878;2022-08-16T05:23:26;8.35;;;5.10;;
60088;SDS011;45961;53.574;55.878;2022-08-16T05:25:29;8.60;;;4.70;;
60088;SDS011;45961;53.574;55.878;2022-08-16T05:26:31;9.43;;;4.63;;
60088;SDS011;45961;53.574;55.878;2022-08-16T05:27:34;9.82;;;4.28;;
60088;SDS011;45961;53.574;55.878;2022-08-16T05:28:35;8.40;;;4.40;;
60088;SDS011;45961;53.574;55.878;2022-08-16T05:29:36;11.70;;;5.20;;
60088;SDS011;45961;53.574;55.878;2022-08-16T05:30:42;15.43;;;5.70;;
60088;SDS011;45961;53.574;55.878;2022-08-16T05:31:51;15.32;;;5.05;;
60088;SDS011;45961;53.574;55.878;2022-08-16T05:32:52;19.88;;;6.15;;
60088;SDS011;45961;53.574;55.878;2022-08-16T05:33:53;18.35;;;7.07;;
60088;SDS011;45961;53.574;55.878;2022-08-16T05:34:56;9.13;;;5.00;;
60088;SDS011;45961;53.574;55.878;2022-08-16T05:37:04;10.20;;;5.50;;
60088;SDS011;45961;53.574;55.878;2022-08-16T05:38:09;10.77;;;4.35;;
60088;SDS011;45961;53.574;55.878;2022-08-16T05:40:12;11.30;;;4.72;;
60088;SDS011;45961;53.574;55.878;2022-08-16T05:41:14;14.40;;;5.13;;
60088;SDS011;45961;53.574;55.878;2022-08-16T05:42:17;16.77;;;6.10;;
60088;SDS011;45961;53.574;55.878;2022-08-16T05:43:18;17.60;;;5.10;;
60088;SDS011;45961;53.574;55.878;2022-08-16T05:44:21;12.82;;;5.47;;
60088;SDS011;45961;53.574;55.878;2022-08-16T05:45:23;10.85;;;5.15;;
60088;SDS011;45961;53.574;55.878;2022-08-16T05:46:29;13.07;;;5.25;;
60088;SDS011;45961;53.574;55.878;2022-08-16T05:48:31;11.90;;;5.53;;
60088;SDS011;45961;53.574;55.878;2022-08-16T05:49:37;11.70;;;5.88;;
60088;SDS011;45961;53.574;55.878;2022-08-16T05:50:38;18.70;;;5.50;;
60088;SDS011;45961;53.574;55.878;2022-08-16T05:52:40;18.20;;;5.80;;
60088;SDS011;45961;53.574;55.878;2022-08-16T05:53:42;19.25;;;6.68;;
60088;SDS011;45961;53.574;55.878;2022-08-16T05:54:46;21.50;;;8.07;;
60088;SDS011;45961;53.574;55.878;2022-08-16T05:55:48;23.05;;;7.18;;
60088;SDS011;45961;53.574;55.878;2022-08-16T05:56:51;25.25;;;8.80;;
60088;SDS011;45961;53.574;55.878;2022-08-16T05:57:53;21.33;;;6.97;;
60088;SDS011;45961;53.574;55.878;2022-08-16T05:58:54;18.55;;;6.88;;
60088;SDS011;45961;53.574;55.878;2022-08-16T05:59:56;22.73;;;6.28;;
60088;SDS011;45961;53.574;55.878;2022-08-16T06:00:57;17.15;;;7.10;;
60088;SDS011;45961;53.574;55.878;2022-08-16T06:02:00;16.58;;;6.50;;
60088;SDS011;45961;53.574;55.878;2022-08-16T06:03:05;19.17;;;6.28;;
60088;SDS011;45961;53.574;55.878;2022-08-16T06:04:32;17.98;;;6.07;;
60088;SDS011;45961;53.574;55.878;2022-08-16T06:05:37;9.57;;;5.60;;
60088;SDS011;45961;53.574;55.878;2022-08-16T06:06:39;16.85;;;6.68;;
60088;SDS011;45961;53.574;55.878;2022-08-16T06:07:42;20.25;;;5.50;;
60088;SDS011;45961;53.574;55.878;2022-08-16T06:08:52;17.42;;;5.68;;
60088;SDS011;45961;53.574;55.878;2022-08-16T06:09:53;21.27;;;5.47;;
60088;SDS011;45961;53.574;55.878;2022-08-16T06:10:58;11.57;;;6.10;;
60088;SDS011;45961;53.574;55.878;2022-08-16T06:11:59;15.82;;;6.20;;
60088;SDS011;45961;53.574;55.878;2022-08-16T06:13:01;34.55;;;7.28;;
60088;SDS011;45961;53.574;55.878;2022-08-16T06:14:02;16.55;;;5.70;;
60088;SDS011;45961;53.574;55.878;2022-08-16T06:15:14;15.30;;;6.28;;
60088;SDS011;45961;53.574;55.878;2022-08-16T06:16:17;16.70;;;6.28;;
60088;SDS011;45961;53.574;55.878;2022-08-16T06:17:18;19.88;;;5.90;;
60088;SDS011;45961;53.574;55.878;2022-08-16T06:18:19;14.15;;;6.20;;
60088;SDS011;45961;53.574;55.878;2022-08-16T06:19:22;17.00;;;5.90;;
60088;SDS011;45961;53.574;55.878;2022-08-16T06:20:33;17.75;;;5.43;;
60088;SDS011;45961;53.574;55.878;2022-08-16T06:21:56;14.60;;;5.32;;
60088;SDS011;45961;53.574;55.878;2022-08-16T06:22:57;18.95;;;5.82;;
60088;SDS011;45961;53.574;55.878;2022-08-16T06:24:00;15.90;;;5.90;;
60088;SDS011;45961;53.574;55.878;2022-08-16T06:25:06;9.80;;;6.07;;
60088;SDS011;45961;53.574;55.878;2022-08-16T06:26:07;15.05;;;6.05;;
60088;SDS011;45961;53.574;55.878;2022-08-16T06:27:13;9.43;;;4.75;;
60088;SDS011;45961;53.574;55.878;2022-08-16T06:28:14;13.52;;;4.47;;
60088;SDS011;45961;53.574;55.878;2022-08-16T06:30:16;11.25;;;4.97;;
60088;SDS011;45961;53.574;55.878;2022-08-16T06:31:18;7.70;;;3.90;;
60088;SDS011;45961;53.574;55.878;2022-08-16T06:32:21;10.18;;;4.55;;
60088;SDS011;45961;53.574;55.878;2022-08-16T06:33:22;10.60;;;4.78;;
60088;SDS011;45961;53.574;55.878;2022-08-16T06:34:25;7.43;;;4.47;;
60088;SDS011;45961;53.574;55.878;2022-08-16T06:35:27;8.65;;;4.25;;
60088;SDS011;45961;53.574;55.878;2022-08-16T06:36:28;9.43;;;4.40;;
60088;SDS011;45961;53.574;55.878;2022-08-16T06:37:38;9.43;;;5.40;;
60088;SDS011;45961;53.574;55.878;2022-08-16T06:38:43;10.30;;;4.53;;
60088;SDS011;45961;53.574;55.878;2022-08-16T06:39:53;9.45;;;4.75;;
60088;SDS011;45961;53.574;55.878;2022-08-16T06:41:11;7.18;;;4.05;;
60088;SDS011;45961;53.574;55.878;2022-08-16T06:42:13;8.48;;;3.88;;
60088;SDS011;45961;53.574;55.878;2022-08-16T06:43:36;8.75;;;3.78;;
60088;SDS011;45961;53.574;55.878;2022-08-16T06:44:41;9.77;;;4.22;;
60088;SDS011;45961;53.574;55.878;2022-08-16T06:45:54;11.70;;;4.18;;
60088;SDS011;45961;53.574;55.878;2022-08-16T06:47:03;14.63;;;5.18;;
60088;SDS011;45961;53.574;55.878;2022-08-16T06:48:05;7.15;;;4.00;;
60088;SDS011;45961;53.574;55.878;2022-08-16T06:49:08;14.32;;;5.07;;
60088;SDS011;45961;53.574;55.878;2022-08-16T06:50:10;10.80;;;4.85;;
60088;SDS011;45961;53.574;55.878;2022-08-16T06:51:17;7.30;;;3.90;;
60088;SDS011;45961;53.574;55.878;2022-08-16T06:52:18;12.55;;;4.55;;
60088;SDS011;45961;53.574;55.878;2022-08-16T06:53:19;11.25;;;5.22;;
60088;SDS011;45961;53.574;55.878;2022-08-16T06:54:32;13.73;;;5.10;;
60088;SDS011;45961;53.574;55.878;2022-08-16T06:55:33;10.77;;;4.97;;
60088;SDS011;45961;53.574;55.878;2022-08-16T06:56:42;12.02;;;4.80;;
60088;SDS011;45961;53.574;55.878;2022-08-16T06:57:47;10.93;;;4.18;;
60088;SDS011;45961;53.574;55.878;2022-08-16T06:58:51;10.27;;;4.43;;
60088;SDS011;45961;53.574;55.878;2022-08-16T06:59:57;10.82;;;4.10;;
60088;SDS011;45961;53.574;55.878;2022-08-16T07:01:00;9.90;;;4.25;;
60088;SDS011;45961;53.574;55.878;2022-08-16T07:02:03;7.28;;;4.00;;
60088;SDS011;45961;53.574;55.878;2022-08-16T07:03:04;8.95;;;3.67;;
60088;SDS011;45961;53.574;55.878;2022-08-16T07:04:06;12.63;;;4.90;;
60088;SDS011;45961;53.574;55.878;2022-08-16T07:05:10;14.40;;;4.75;;
60088;SDS011;45961;53.574;55.878;2022-08-16T07:06:15;13.13;;;4.18;;
60088;SDS011;45961;53.574;55.878;2022-08-16T07:07:19;10.07;;;4.10;;
60088;SDS011;45961;53.574;55.878;2022-08-16T07:09:23;12.50;;;4.13;;
60088;SDS011;45961;53.574;55.878;2022-08-16T07:10:24;14.13;;;5.28;;
60088;SDS011;45961;53.574;55.878;2022-08-16T07:11:26;11.25;;;4.82;;
60088;SDS011;45961;53.574;55.878;2022-08-16T07:13:28;14.83;;;4.13;;
60088;SDS011;45961;53.574;55.878;2022-08-16T07:14:33;7.35;;;4.20;;
60088;SDS011;45961;53.574;55.878;2022-08-16T07:15:35;6.40;;;3.80;;
60088;SDS011;45961;53.574;55.878;2022-08-16T07:16:37;6.53;;;3.63;;
60088;SDS011;45961;53.574;55.878;2022-08-16T07:17:41;9.02;;;3.78;;
60088;SDS011;45961;53.574;55.878;2022-08-16T07:18:44;7.22;;;3.55;;
60088;SDS011;45961;53.574;55.878;2022-08-16T07:19:46;7.65;;;3.55;;
60088;SDS011;45961;53.574;55.878;2022-08-16T07:20:47;9.70;;;4.05;;
60088;SDS011;45961;53.574;55.878;2022-08-16T07:21:49;6.57;;;3.80;;
60088;SDS011;45961;53.574;55.878;2022-08-16T07:22:51;6.22;;;3.25;;
60088;SDS011;45961;53.574;55.878;2022-08-16T07:24:00;13.65;;;3.90;;
60088;SDS011;45961;53.574;55.878;2022-08-16T07:25:02;7.40;;;3.72;;
60088;SDS011;45961;53.574;55.878;2022-08-16T07:26:05;5.93;;;3.53;;